Time;durP1;ratioP1;P1;durP2;ratioP2;P2;SDS_P1;SDS_P2;PMS_P1;PMS_P2;Temp;Humidity;BMP_temperature;BMP_pressure;BME280_temperature;BME280_humidity;BME280_pressure;Samples;Min_cycle;Max_cycle;Signal;HPM_P1;HPM_P2
2022/04/02 00:01:25;;;;;;;84.15;48.95;;;;;;;;;;5012370;28;20494;-60
2022/04/02 00:03:51;;;;;;;80.23;49.77;;;;;;;;;;5012133;28;20201;-60
2022/04/02 00:06:17;;;;;;;83.85;51.63;;;;;;;;;;5010450;28;20522;-59
2022/04/02 00:08:43;;;;;;;78.23;46.20;;;;;;;;;;5012247;28;20253;-60
2022/04/02 00:11:09;;;;;;;79.50;46.80;;;;;;;;;;5010421;28;20436;-60
2022/04/02 00:13:35;;;;;;;84.43;49.08;;;;;;;;;;5012445;28;20478;-60
2022/04/02 00:16:02;;;;;;;82.32;50.40;;;;;;;;;;5012050;28;20205;-60
2022/04/02 00:18:29;;;;;;;83.78;49.40;;;;;;;;;;5012191;28;20259;-60
2022/04/02 00:20:56;;;;;;;82.68;49.13;;;;;;;;;;5012367;28;20173;-60
2022/04/02 00:23:39;;;;;;;83.53;50.85;;;;;;;;;;5011293;28;20209;-60
2022/04/02 00:26:16;;;;;;;78.60;47.22;;;;;;;;;;5011478;28;20204;-60
2022/04/02 00:28:43;;;;;;;82.85;51.30;;;;;;;;;;5012531;28;20689;-59
2022/04/02 00:31:10;;;;;;;80.30;49.83;;;;;;;;;;5012189;28;20193;-60
2022/04/02 00:33:36;;;;;;;81.68;49.72;;;;;;;;;;5011058;28;20186;-60
2022/04/02 00:36:03;;;;;;;83.63;52.60;;;;;;;;;;5012028;28;20255;-60
2022/04/02 00:38:29;;;;;;;76.40;46.45;;;;;;;;;;5011658;28;20185;-60
2022/04/02 00:40:55;;;;;;;59.83;47.72;;;;;;;;;;5004002;28;20207;-60
2022/04/02 00:43:28;;;;;;;60.23;45.97;;;;;;;;;;5011313;28;20288;-60
2022/04/02 00:45:54;;;;;;;61.78;47.38;;;;;;;;;;5011904;28;20490;-60
2022/04/02 00:48:21;;;;;;;52.08;44.83;;;;;;;;;;5011760;28;20209;-60
2022/04/02 00:50:48;;;;;;;54.10;43.58;;;;;;;;;;5011673;28;20189;-60
2022/04/02 00:53:15;;;;;;;52.10;43.15;;;;;;;;;;5011278;28;20186;-59
2022/04/02 00:55:42;;;;;;;52.83;41.00;;;;;;;;;;5011795;28;20201;-60
2022/04/02 00:58:11;;;;;;;57.25;45.03;;;;;;;;;;5011004;28;20189;-60
2022/04/02 01:00:37;;;;;;;46.83;42.05;;;;;;;;;;5010893;28;20174;-60
2022/04/02 01:03:03;;;;;;;41.28;37.10;;;;;;;;;;5011295;28;20288;-60
2022/04/02 01:05:29;;;;;;;44.97;40.67;;;;;;;;;;5011370;28;20634;-60
2022/04/02 01:07:55;;;;;;;44.85;40.53;;;;;;;;;;5011673;28;20185;-60
2022/04/02 01:10:21;;;;;;;44.20;40.27;;;;;;;;;;5010792;28;20257;-60
2022/04/02 01:12:47;;;;;;;47.17;42.58;;;;;;;;;;5010990;28;20420;-60
2022/04/02 01:15:13;;;;;;;43.63;39.70;;;;;;;;;;5010640;28;20185;-59
2022/04/02 01:17:40;;;;;;;39.10;35.20;;;;;;;;;;5012062;28;20439;-60
2022/04/02 01:20:07;;;;;;;40.78;37.20;;;;;;;;;;5011397;28;20432;-60
2022/04/02 01:22:34;;;;;;;41.38;37.50;;;;;;;;;;5011112;28;20236;-60
2022/04/02 01:25:00;;;;;;;41.13;37.15;;;;;;;;;;5010950;28;20256;-60
2022/04/02 01:27:25;;;;;;;38.30;34.90;;;;;;;;;;5011556;28;20265;-60
2022/04/02 01:29:51;;;;;;;43.03;39.13;;;;;;;;;;5009569;28;20436;-60
2022/04/02 01:32:17;;;;;;;36.10;32.90;;;;;;;;;;5011073;28;20440;-60
2022/04/02 01:34:43;;;;;;;38.50;35.20;;;;;;;;;;5010277;28;20507;-60
2022/04/02 01:37:13;;;;;;;34.40;31.60;;;;;;;;;;5011104;28;20944;-60
2022/04/02 01:39:39;;;;;;;28.45;26.30;;;;;;;;;;5011518;28;20424;-60
2022/04/02 01:42:06;;;;;;;31.73;29.13;;;;;;;;;;5010567;28;20201;-61
2022/04/02 01:44:32;;;;;;;36.13;33.25;;;;;;;;;;5010341;28;21025;-61
2022/04/02 01:46:58;;;;;;;34.35;31.60;;;;;;;;;;5011104;28;20300;-61
2022/04/02 01:49:24;;;;;;;31.73;29.30;;;;;;;;;;5011344;28;20267;-61
2022/04/02 01:51:50;;;;;;;22.07;20.80;;;;;;;;;;5010745;28;20424;-61
2022/04/02 01:54:17;;;;;;;23.80;22.30;;;;;;;;;;5011023;28;20503;-61
2022/04/02 01:56:43;;;;;;;25.77;24.08;;;;;;;;;;5010615;28;20444;-61
2022/04/02 01:59:09;;;;;;;28.33;26.50;;;;;;;;;;5010280;28;20264;-61
2022/04/02 02:01:35;;;;;;;28.02;26.13;;;;;;;;;;5010339;28;20209;-61
2022/04/02 02:04:01;;;;;;;35.53;32.60;;;;;;;;;;5011175;28;20178;-61
2022/04/02 02:06:27;;;;;;;36.47;33.40;;;;;;;;;;5010575;28;20477;-61
2022/04/02 02:08:53;;;;;;;36.00;33.00;;;;;;;;;;5010922;28;20422;-60
2022/04/02 02:11:20;;;;;;;33.08;30.30;;;;;;;;;;5010608;28;20553;-60
2022/04/02 02:13:46;;;;;;;36.15;33.05;;;;;;;;;;5011630;28;20190;-60
2022/04/02 02:16:13;;;;;;;35.57;32.63;;;;;;;;;;5014582;28;20219;-60
2022/04/02 02:18:38;;;;;;;31.33;28.83;;;;;;;;;;5014639;28;20435;-60
2022/04/02 02:21:05;;;;;;;30.77;28.53;;;;;;;;;;5014338;28;20185;-60
2022/04/02 02:23:30;;;;;;;25.88;24.20;;;;;;;;;;4999584;28;20499;-60
2022/04/02 02:25:56;;;;;;;24.53;22.97;;;;;;;;;;5014915;28;20193;-59
2022/04/02 02:28:23;;;;;;;25.67;24.00;;;;;;;;;;5021167;28;20515;-60
2022/04/02 02:30:49;;;;;;;29.45;27.33;;;;;;;;;;5014590;28;20776;-59
2022/04/02 02:35:59;;;;;;;40.72;36.63;;;;;;;;;;5014783;28;20470;-57
2022/04/02 02:38:25;;;;;;;42.73;38.17;;;;;;;;;;5014897;28;20186;-59
2022/04/02 02:40:52;;;;;;;49.20;43.77;;;;;;;;;;5014007;28;20512;-59
2022/04/02 02:43:19;;;;;;;44.20;39.35;;;;;;;;;;5010979;28;20471;-60
2022/04/02 02:45:45;;;;;;;48.78;42.65;;;;;;;;;;5014584;28;20313;-59
2022/04/02 02:48:11;;;;;;;47.28;42.17;;;;;;;;;;5014608;28;20181;-60
2022/04/02 02:50:38;;;;;;;48.20;42.60;;;;;;;;;;5013648;28;20193;-60
2022/04/02 02:53:04;;;;;;;47.53;42.35;;;;;;;;;;5008628;28;20456;-60
2022/04/02 02:55:30;;;;;;;50.50;45.07;;;;;;;;;;5013603;28;20241;-59
2022/04/02 02:57:56;;;;;;;45.13;40.40;;;;;;;;;;5014017;28;20424;-60
2022/04/02 03:00:22;;;;;;;51.38;45.90;;;;;;;;;;5013580;28;20486;-60
2022/04/02 03:02:48;;;;;;;43.92;38.10;;;;;;;;;;5013326;28;20202;-60
2022/04/02 03:05:15;;;;;;;42.40;36.20;;;;;;;;;;5013812;28;20228;-59
2022/04/02 03:07:49;;;;;;;46.90;41.88;;;;;;;;;;5013766;28;20445;-60
2022/04/02 03:10:17;;;;;;;52.67;47.30;;;;;;;;;;5013573;28;20216;-60
2022/04/02 03:12:43;;;;;;;48.63;43.42;;;;;;;;;;5012548;28;20177;-60
2022/04/02 03:15:09;;;;;;;48.92;43.45;;;;;;;;;;5013357;28;20188;-60
2022/04/02 03:17:35;;;;;;;45.17;40.28;;;;;;;;;;5013770;28;20201;-59
2022/04/02 03:20:01;;;;;;;46.20;41.30;;;;;;;;;;5013709;28;20196;-60
2022/04/02 03:22:27;;;;;;;46.33;39.20;;;;;;;;;;5013081;28;20495;-60
2022/04/02 03:24:54;;;;;;;44.85;40.05;;;;;;;;;;5012493;28;20494;-59
2022/04/02 03:27:20;;;;;;;49.55;43.03;;;;;;;;;;5013210;28;20197;-60
2022/04/02 03:29:46;;;;;;;48.17;40.73;;;;;;;;;;5012937;28;20549;-60
2022/04/02 03:32:12;;;;;;;46.00;41.00;;;;;;;;;;5012929;28;20502;-59
2022/04/02 03:34:39;;;;;;;42.95;38.55;;;;;;;;;;5012903;28;20424;-59
2022/04/02 03:37:05;;;;;;;48.13;42.33;;;;;;;;;;5012768;28;20231;-60
2022/04/02 03:39:31;;;;;;;50.53;44.37;;;;;;;;;;5012522;28;20648;-60
2022/04/02 03:41:57;;;;;;;45.65;38.83;;;;;;;;;;5012352;28;20498;-58
2022/04/02 03:44:23;;;;;;;43.72;39.03;;;;;;;;;;5013501;28;20173;-59
2022/04/02 03:49:34;;;;;;;40.00;35.92;;;;;;;;;;5013173;28;20551;-62
2022/04/02 03:52:00;;;;;;;45.57;40.60;;;;;;;;;;5012209;28;20273;-60
2022/04/02 03:54:25;;;;;;;44.20;38.40;;;;;;;;;;5012234;28;20998;-59
2022/04/02 03:56:51;;;;;;;47.47;40.03;;;;;;;;;;5012492;28;20924;-62
2022/04/02 03:59:18;;;;;;;47.23;40.03;;;;;;;;;;5013218;28;20463;-59
2022/04/02 04:01:44;;;;;;;46.20;40.28;;;;;;;;;;5011960;28;20425;-60
2022/04/02 04:04:10;;;;;;;42.67;37.97;;;;;;;;;;5013020;28;20640;-60
2022/04/02 04:06:37;;;;;;;50.13;43.47;;;;;;;;;;5012785;28;20248;-59
2022/04/02 04:09:03;;;;;;;44.47;39.10;;;;;;;;;;5012087;28;20203;-60
2022/04/02 04:11:29;;;;;;;44.67;39.83;;;;;;;;;;5011712;28;20252;-58
2022/04/02 04:13:56;;;;;;;44.87;39.27;;;;;;;;;;5012505;28;20420;-61
2022/04/02 04:16:22;;;;;;;49.20;39.28;;;;;;;;;;5012146;28;20502;-60
2022/04/02 04:18:48;;;;;;;44.63;39.85;;;;;;;;;;5012769;28;20181;-61
2022/04/02 04:21:14;;;;;;;54.10;44.50;;;;;;;;;;5011078;28;20265;-61
2022/04/02 04:23:43;;;;;;;47.47;40.25;;;;;;;;;;5012285;28;20557;-61
2022/04/02 04:26:11;;;;;;;45.78;40.78;;;;;;;;;;5012139;28;20576;-60
2022/04/02 04:28:37;;;;;;;52.20;42.72;;;;;;;;;;5012466;28;20582;-61
2022/04/02 04:31:04;;;;;;;47.53;39.58;;;;;;;;;;5025333;28;20234;-60
2022/04/02 04:33:30;;;;;;;54.90;44.60;;;;;;;;;;5019092;28;20177;-60
2022/04/02 04:35:56;;;;;;;50.95;40.08;;;;;;;;;;5010906;28;20213;-60
2022/04/02 04:38:22;;;;;;;62.07;55.70;;;;;;;;;;5011301;28;20178;-60
2022/04/02 04:40:48;;;;;;;51.10;42.10;;;;;;;;;;5011398;28;20456;-60
2022/04/02 04:43:14;;;;;;;50.30;40.78;;;;;;;;;;5011812;28;20468;-61
2022/04/02 04:45:40;;;;;;;46.80;38.60;;;;;;;;;;5011656;28;20310;-60
2022/04/02 04:48:06;;;;;;;46.70;40.80;;;;;;;;;;5011221;28;20422;-60
2022/04/02 04:50:32;;;;;;;44.60;38.40;;;;;;;;;;5010936;28;20198;-59
2022/04/02 04:52:58;;;;;;;49.30;43.92;;;;;;;;;;5011237;28;20178;-61
2022/04/02 04:55:25;;;;;;;46.63;40.50;;;;;;;;;;5011609;28;20197;-61
2022/04/02 04:57:51;;;;;;;45.22;38.80;;;;;;;;;;5011752;28;20189;-60
2022/04/02 05:00:17;;;;;;;53.42;47.88;;;;;;;;;;5009246;28;20667;-59
2022/04/02 05:02:44;;;;;;;45.45;40.58;;;;;;;;;;5009664;28;20240;-61
2022/04/02 05:05:11;;;;;;;52.10;41.38;;;;;;;;;;5002809;28;20590;-61
2022/04/02 05:07:38;;;;;;;50.95;40.42;;;;;;;;;;5010497;28;20588;-61
2022/04/02 05:10:04;;;;;;;44.15;39.47;;;;;;;;;;5011977;28;20252;-61
2022/04/02 05:12:30;;;;;;;54.15;43.00;;;;;;;;;;5007885;28;20181;-61
2022/04/02 05:14:56;;;;;;;60.43;46.10;;;;;;;;;;5010179;28;20600;-59
2022/04/02 05:17:22;;;;;;;53.40;41.20;;;;;;;;;;5010388;28;21165;-61
2022/04/02 05:19:48;;;;;;;54.88;40.80;;;;;;;;;;5009208;28;20472;-60
2022/04/02 05:22:14;;;;;;;57.85;42.53;;;;;;;;;;5007932;28;20209;-61
2022/04/02 05:24:40;;;;;;;63.17;46.03;;;;;;;;;;5008962;28;20174;-61
2022/04/02 05:27:06;;;;;;;49.55;41.05;;;;;;;;;;5008391;28;20243;-60
2022/04/02 05:29:32;;;;;;;53.55;43.47;;;;;;;;;;5011110;28;20533;-60
2022/04/02 05:31:58;;;;;;;51.65;38.80;;;;;;;;;;5010628;28;20183;-59
2022/04/02 05:34:24;;;;;;;60.67;42.40;;;;;;;;;;5011291;28;20185;-59
2022/04/02 05:36:50;;;;;;;60.13;42.70;;;;;;;;;;5010855;28;20440;-60
2022/04/02 05:39:16;;;;;;;57.55;43.42;;;;;;;;;;5009761;28;20530;-59
2022/04/02 05:41:42;;;;;;;35.73;32.47;;;;;;;;;;4997444;28;20189;-61
2022/04/02 05:44:08;;;;;;;38.20;34.67;;;;;;;;;;5010864;28;20482;-59
2022/04/02 05:46:34;;;;;;;36.53;33.22;;;;;;;;;;5013367;28;20447;-60
2022/04/02 05:49:00;;;;;;;39.65;35.83;;;;;;;;;;5026446;28;20200;-60
2022/04/02 05:51:26;;;;;;;39.30;35.47;;;;;;;;;;5014837;28;20181;-60
2022/04/02 05:53:52;;;;;;;47.17;38.90;;;;;;;;;;5014188;28;20468;-61
2022/04/02 05:56:19;;;;;;;57.07;42.80;;;;;;;;;;5015287;28;20296;-60
2022/04/02 05:58:45;;;;;;;47.05;41.78;;;;;;;;;;5015430;28;20462;-60
2022/04/02 06:01:11;;;;;;;50.73;41.07;;;;;;;;;;5015603;28;20642;-59
2022/04/02 06:03:40;;;;;;;57.20;43.72;;;;;;;;;;5015174;28;21044;-59
2022/04/02 06:06:09;;;;;;;54.40;43.08;;;;;;;;;;4997832;28;20219;-59
2022/04/02 06:08:35;;;;;;;62.28;45.03;;;;;;;;;;5015136;28;20178;-60
2022/04/02 06:11:01;;;;;;;61.93;41.77;;;;;;;;;;5013733;28;20241;-60
2022/04/02 06:13:27;;;;;;;58.35;40.28;;;;;;;;;;5014447;28;20421;-61
2022/04/02 06:15:54;;;;;;;50.47;39.08;;;;;;;;;;5014409;28;20207;-61
2022/04/02 06:18:20;;;;;;;57.05;44.05;;;;;;;;;;5013419;28;20182;-60
2022/04/02 06:20:47;;;;;;;62.88;44.20;;;;;;;;;;5015202;28;20739;-61
2022/04/02 06:23:13;;;;;;;63.67;44.58;;;;;;;;;;5012391;28;20197;-59
2022/04/02 06:25:39;;;;;;;61.35;44.53;;;;;;;;;;5012565;28;20193;-60
2022/04/02 06:28:07;;;;;;;64.32;46.45;;;;;;;;;;5013494;28;20264;-60
2022/04/02 06:30:33;;;;;;;59.30;41.33;;;;;;;;;;5012896;28;20557;-60
2022/04/02 06:33:00;;;;;;;62.90;45.75;;;;;;;;;;5010400;28;20699;-60
2022/04/02 06:35:26;;;;;;;63.42;44.30;;;;;;;;;;5010135;28;20205;-60
2022/04/02 06:37:54;;;;;;;59.80;45.47;;;;;;;;;;5014360;28;20619;-59
2022/04/02 06:40:20;;;;;;;60.72;47.30;;;;;;;;;;5007214;28;20186;-58
2022/04/02 06:42:46;;;;;;;64.15;45.63;;;;;;;;;;4995718;28;20292;-60
2022/04/02 06:45:12;;;;;;;67.65;45.75;;;;;;;;;;5012485;28;20749;-59
2022/04/02 06:47:38;;;;;;;63.03;43.78;;;;;;;;;;5014607;28;20161;-59
2022/04/02 06:50:05;;;;;;;72.25;49.53;;;;;;;;;;5012595;28;20608;-59
2022/04/02 06:52:32;;;;;;;66.90;45.47;;;;;;;;;;5013703;28;20177;-59
2022/04/02 06:54:58;;;;;;;57.40;46.75;;;;;;;;;;5012398;28;20290;-59
2022/04/02 06:57:24;;;;;;;72.73;47.63;;;;;;;;;;5011023;28;20652;-60
2022/04/02 06:59:50;;;;;;;71.70;46.17;;;;;;;;;;5012047;28;20428;-60
2022/04/02 07:02:16;;;;;;;70.22;46.90;;;;;;;;;;5013663;28;20209;-60
2022/04/02 07:04:42;;;;;;;75.63;47.75;;;;;;;;;;5014605;28;20188;-58
2022/04/02 07:07:08;;;;;;;70.13;46.65;;;;;;;;;;5002197;28;20677;-59
2022/04/02 07:09:34;;;;;;;69.32;45.42;;;;;;;;;;5013746;28;20256;-60
2022/04/02 07:12:00;;;;;;;66.43;44.20;;;;;;;;;;5013554;28;20243;-58
2022/04/02 07:14:26;;;;;;;69.10;43.40;;;;;;;;;;5012209;28;20428;-62
2022/04/02 07:16:52;;;;;;;59.43;43.03;;;;;;;;;;5011660;28;20512;-60
2022/04/02 07:19:22;;;;;;;77.50;50.53;;;;;;;;;;5011244;23;20853;-59
2022/04/02 07:21:50;;;;;;;76.32;48.40;;;;;;;;;;4995680;28;20500;-54
2022/04/02 07:24:17;;;;;;;64.95;44.30;;;;;;;;;;4993529;28;20182;-58
2022/04/02 07:26:45;;;;;;;63.03;43.35;;;;;;;;;;4992082;28;20534;-59
2022/04/02 07:29:11;;;;;;;68.07;47.22;;;;;;;;;;4994197;28;20570;-57
2022/04/02 07:31:37;;;;;;;69.85;46.03;;;;;;;;;;4990780;28;20694;-55
2022/04/02 07:34:03;;;;;;;70.30;47.07;;;;;;;;;;4996815;28;20281;-55
2022/04/02 07:36:41;;;;;;;69.57;45.90;;;;;;;;;;4993585;28;20461;-58
2022/04/02 07:39:23;;;;;;;44.30;39.95;;;;;;;;;;4992303;28;20237;-56
2022/04/02 07:42:08;;;;;;;63.10;43.35;;;;;;;;;;4987904;28;20567;-57
2022/04/02 07:44:36;;;;;;;70.05;45.97;;;;;;;;;;4987292;28;20778;-56
2022/04/02 07:47:03;;;;;;;67.38;47.45;;;;;;;;;;4991756;28;20189;-55
2022/04/02 07:49:30;;;;;;;66.55;43.30;;;;;;;;;;4992100;28;20225;-58
2022/04/02 07:51:56;;;;;;;64.55;42.13;;;;;;;;;;4993004;28;20185;-56
2022/04/02 07:54:24;;;;;;;69.50;45.60;;;;;;;;;;4993481;28;20213;-56
2022/04/02 07:56:51;;;;;;;68.80;46.03;;;;;;;;;;4993244;28;20593;-57
2022/04/02 07:59:23;;;;;;;73.32;44.13;;;;;;;;;;4993584;28;20198;-55
2022/04/02 08:01:50;;;;;;;75.05;46.70;;;;;;;;;;4992832;28;20578;-58
2022/04/02 08:04:17;;;;;;;70.13;44.17;;;;;;;;;;4989931;28;20178;-58
2022/04/02 08:06:43;;;;;;;71.50;46.65;;;;;;;;;;4980581;28;20183;-58
2022/04/02 08:09:09;;;;;;;74.15;47.20;;;;;;;;;;4984674;28;20203;-57
2022/04/02 08:11:39;;;;;;;65.70;44.72;;;;;;;;;;4991096;28;20571;-57
2022/04/02 08:14:05;;;;;;;70.82;49.85;;;;;;;;;;4990108;28;20197;-60
2022/04/02 08:16:33;;;;;;;60.13;44.60;;;;;;;;;;4997607;28;20272;-58
2022/04/02 08:19:00;;;;;;;69.85;46.88;;;;;;;;;;4990567;28;20253;-58
2022/04/02 08:21:26;;;;;;;70.13;49.33;;;;;;;;;;4991966;28;20189;-58
2022/04/02 08:23:52;;;;;;;62.60;41.80;;;;;;;;;;4992580;28;20202;-57
2022/04/02 08:26:18;;;;;;;67.03;44.60;;;;;;;;;;4987122;28;21121;-56
2022/04/02 08:29:02;;;;;;;70.10;46.80;;;;;;;;;;4990333;28;20457;-57
2022/04/02 08:31:37;;;;;;;71.25;45.97;;;;;;;;;;4992137;28;20828;-61
2022/04/02 08:34:26;;;;;;;67.75;43.95;;;;;;;;;;4990598;28;20664;-61
2022/04/02 08:37:02;;;;;;;70.70;47.40;;;;;;;;;;4986482;28;20199;-56
2022/04/02 08:39:45;;;;;;;60.85;44.55;;;;;;;;;;4989737;28;20194;-55
2022/04/02 08:42:23;;;;;;;59.10;43.75;;;;;;;;;;4988821;28;20209;-57
2022/04/02 08:45:08;;;;;;;52.45;43.35;;;;;;;;;;4990045;28;20871;-54
2022/04/02 08:47:40;;;;;;;64.03;44.80;;;;;;;;;;4973234;28;20172;-57
2022/04/02 08:50:10;;;;;;;67.22;47.17;;;;;;;;;;4991856;28;20670;-57
2022/04/02 08:52:38;;;;;;;62.40;46.90;;;;;;;;;;4997232;28;20187;-56
2022/04/02 08:55:13;;;;;;;65.07;44.50;;;;;;;;;;4988966;28;20252;-58
2022/04/02 08:57:50;;;;;;;67.93;46.03;;;;;;;;;;4986756;28;20186;-59
2022/04/02 09:00:23;;;;;;;64.35;46.22;;;;;;;;;;4988183;28;20197;-54
2022/04/02 09:02:49;;;;;;;67.43;48.20;;;;;;;;;;4990304;28;20236;-56
2022/04/02 09:05:34;;;;;;;75.20;49.85;;;;;;;;;;4989707;28;20213;-57
2022/04/02 09:08:08;;;;;;;66.90;45.83;;;;;;;;;;4990489;28;20593;-59
2022/04/02 09:10:47;;;;;;;67.75;46.28;;;;;;;;;;4986858;28;20300;-54
2022/04/02 09:13:32;;;;;;;63.72;46.22;;;;;;;;;;4985184;28;20186;-57
2022/04/02 09:16:05;;;;;;;69.20;47.72;;;;;;;;;;4988926;28;20566;-62
2022/04/02 09:18:38;;;;;;;64.65;47.47;;;;;;;;;;4989221;28;20264;-60
2022/04/02 09:21:16;;;;;;;60.90;43.53;;;;;;;;;;4989000;28;20182;-61
2022/04/02 09:23:57;;;;;;;60.50;44.97;;;;;;;;;;4986681;28;20911;-58
2022/04/02 09:26:23;;;;;;;65.80;45.03;;;;;;;;;;4987935;28;20195;-61
2022/04/02 09:29:12;;;;;;;69.70;47.30;;;;;;;;;;4988583;28;20682;-59
2022/04/02 09:31:57;;;;;;;58.53;43.42;;;;;;;;;;4988419;28;20453;-57
2022/04/02 09:34:28;;;;;;;65.75;45.83;;;;;;;;;;4988266;28;20205;-57
2022/04/02 09:36:59;;;;;;;65.47;45.70;;;;;;;;;;4984222;28;20269;-58
2022/04/02 09:39:51;;;;;;;63.78;44.63;;;;;;;;;;4991010;28;20978;-58
2022/04/02 09:42:36;;;;;;;56.70;43.22;;;;;;;;;;4989160;28;20206;-55
2022/04/02 09:45:10;;;;;;;60.15;48.78;;;;;;;;;;4987414;28;20178;-59
2022/04/02 09:47:45;;;;;;;57.85;44.83;;;;;;;;;;4989038;28;20179;-61
2022/04/02 09:50:11;;;;;;;61.22;45.05;;;;;;;;;;4988322;28;20252;-59
2022/04/02 09:52:38;;;;;;;62.40;43.50;;;;;;;;;;4990033;28;20181;-60
2022/04/02 09:55:21;;;;;;;62.88;44.42;;;;;;;;;;4988109;28;20208;-61
2022/04/02 09:58:05;;;;;;;60.42;42.53;;;;;;;;;;4988976;28;20207;-56
2022/04/02 10:00:38;;;;;;;62.80;46.83;;;;;;;;;;4981938;28;21764;-58
2022/04/02 10:03:08;;;;;;;63.78;45.67;;;;;;;;;;4988493;28;20252;-56
2022/04/02 10:05:40;;;;;;;46.35;38.03;;;;;;;;;;4988177;28;20171;-57
2022/04/02 10:08:12;;;;;;;57.03;44.78;;;;;;;;;;4989304;28;20585;-58
2022/04/02 10:10:38;;;;;;;60.58;47.67;;;;;;;;;;4987586;28;20194;-55
2022/04/02 10:13:04;;;;;;;50.65;42.05;;;;;;;;;;4988199;28;20265;-55
2022/04/02 10:15:31;;;;;;;58.53;45.38;;;;;;;;;;4983854;28;20179;-55
2022/04/02 10:18:02;;;;;;;59.35;47.47;;;;;;;;;;4985827;28;20198;-55
2022/04/02 10:20:31;;;;;;;56.15;43.63;;;;;;;;;;4985524;28;20257;-54
2022/04/02 10:23:14;;;;;;;60.55;43.08;;;;;;;;;;4985273;28;20241;-56
2022/04/02 10:26:00;;;;;;;60.15;42.78;;;;;;;;;;4989999;28;20182;-56
2022/04/02 10:28:28;;;;;;;61.55;44.30;;;;;;;;;;4974540;28;20637;-60
2022/04/02 10:30:56;;;;;;;60.30;44.55;;;;;;;;;;4990434;28;20179;-60
2022/04/02 10:33:28;;;;;;;57.05;41.80;;;;;;;;;;4986423;28;20183;-57
2022/04/02 10:35:55;;;;;;;60.55;43.85;;;;;;;;;;4993535;28;20178;-57
2022/04/02 10:38:36;;;;;;;63.35;44.78;;;;;;;;;;4993503;28;20198;-60
2022/04/02 10:41:10;;;;;;;63.97;44.78;;;;;;;;;;4993409;28;20217;-58
2022/04/02 10:43:42;;;;;;;59.28;45.40;;;;;;;;;;4985892;28;20221;-59
2022/04/02 10:46:08;;;;;;;64.28;45.45;;;;;;;;;;4987684;28;20284;-61
2022/04/02 10:48:55;;;;;;;61.05;45.08;;;;;;;;;;4993310;28;20202;-55
2022/04/02 10:51:22;;;;;;;58.63;43.60;;;;;;;;;;4990334;28;20595;-57
2022/04/02 10:53:50;;;;;;;61.30;46.40;;;;;;;;;;4991835;28;20190;-55
2022/04/02 10:56:18;;;;;;;60.00;43.60;;;;;;;;;;4992711;28;20206;-57
2022/04/02 10:58:48;;;;;;;62.63;45.33;;;;;;;;;;4993132;28;20202;-58
2022/04/02 11:01:17;;;;;;;61.42;43.22;;;;;;;;;;4992399;28;20214;-58
2022/04/02 11:03:47;;;;;;;62.72;46.88;;;;;;;;;;4990496;28;20288;-57
2022/04/02 11:06:33;;;;;;;63.35;45.05;;;;;;;;;;4991710;28;20656;-57
2022/04/02 11:08:59;;;;;;;66.95;46.80;;;;;;;;;;4992456;28;20245;-58
2022/04/02 11:11:26;;;;;;;63.93;46.30;;;;;;;;;;4993484;28;20194;-60
2022/04/02 11:13:52;;;;;;;59.40;51.78;;;;;;;;;;4991057;28;20429;-55
2022/04/02 11:16:23;;;;;;;59.13;48.72;;;;;;;;;;4990115;28;20273;-54
2022/04/02 11:22:06;;;;;;;48.47;40.20;;;;;;;;;;4987026;28;20213;-58
2022/04/02 11:24:35;;;;;;;58.50;45.72;;;;;;;;;;4989503;28;20189;-58
2022/04/02 11:27:02;;;;;;;65.88;46.13;;;;;;;;;;4990936;28;20240;-57
2022/04/02 11:29:29;;;;;;;61.38;42.30;;;;;;;;;;4993777;28;20276;-57
2022/04/02 11:31:55;;;;;;;51.88;43.78;;;;;;;;;;4994856;28;20189;-57
2022/04/02 11:34:26;;;;;;;43.92;39.15;;;;;;;;;;4990778;28;20213;-59
2022/04/02 11:36:59;;;;;;;48.33;40.85;;;;;;;;;;4990759;28;20230;-59
2022/04/02 11:39:29;;;;;;;48.95;42.38;;;;;;;;;;4988618;28;20633;-55
2022/04/02 11:41:57;;;;;;;46.30;41.50;;;;;;;;;;4991892;28;20236;-57
2022/04/02 11:44:34;;;;;;;45.88;41.10;;;;;;;;;;4990020;28;20519;-58
2022/04/02 11:47:01;;;;;;;49.42;42.65;;;;;;;;;;4986388;28;20179;-57
2022/04/02 11:49:39;;;;;;;50.63;42.45;;;;;;;;;;4994003;28;20202;-59
2022/04/02 11:52:06;;;;;;;45.00;40.10;;;;;;;;;;4988927;28;20598;-59
2022/04/02 11:54:38;;;;;;;46.00;39.90;;;;;;;;;;4991863;28;20259;-60
2022/04/02 11:57:08;;;;;;;44.45;38.78;;;;;;;;;;4991941;28;20178;-60
2022/04/02 11:59:35;;;;;;;44.03;39.33;;;;;;;;;;4988928;28;20194;-59
2022/04/02 12:02:01;;;;;;;46.63;40.22;;;;;;;;;;4991559;28;20652;-59
2022/04/02 12:04:27;;;;;;;45.53;40.60;;;;;;;;;;4991266;28;20685;-56
2022/04/02 12:06:55;;;;;;;43.07;38.60;;;;;;;;;;4996421;28;20185;-57
2022/04/02 12:09:21;;;;;;;37.80;34.30;;;;;;;;;;4985791;28;20477;-59
2022/04/02 12:11:58;;;;;;;41.25;37.30;;;;;;;;;;4992612;28;20662;-60
2022/04/02 12:14:35;;;;;;;42.72;38.13;;;;;;;;;;4992033;28;20197;-59
2022/04/02 12:17:05;;;;;;;47.67;42.53;;;;;;;;;;4991250;28;20186;-59
2022/04/02 12:19:36;;;;;;;46.63;41.35;;;;;;;;;;4984201;28;20304;-59
2022/04/02 12:22:02;;;;;;;43.08;37.50;;;;;;;;;;4984232;28;20173;-59
2022/04/02 12:24:38;;;;;;;50.10;43.42;;;;;;;;;;4995514;28;20178;-60
2022/04/02 12:27:08;;;;;;;47.88;42.78;;;;;;;;;;4985979;28;20182;-59
2022/04/02 12:29:34;;;;;;;51.05;42.88;;;;;;;;;;4985221;28;20203;-59
2022/04/02 12:32:01;;;;;;;55.80;44.67;;;;;;;;;;4984668;28;20508;-57
2022/04/02 12:34:27;;;;;;;59.55;45.15;;;;;;;;;;4988648;28;20183;-57
2022/04/02 12:37:01;;;;;;;58.22;44.00;;;;;;;;;;4989909;28;20190;-57
2022/04/02 12:39:27;;;;;;;61.15;45.90;;;;;;;;;;4992292;28;20198;-56
2022/04/02 12:41:53;;;;;;;59.22;43.47;;;;;;;;;;4989537;28;20182;-58
2022/04/02 12:44:20;;;;;;;54.85;43.60;;;;;;;;;;4991374;28;20569;-58
2022/04/02 12:46:46;;;;;;;62.10;53.22;;;;;;;;;;4990473;28;20213;-59
2022/04/02 12:49:28;;;;;;;54.80;42.40;;;;;;;;;;4991868;28;20562;-59
2022/04/02 12:52:16;;;;;;;56.47;44.55;;;;;;;;;;4985637;28;20449;-55
2022/04/02 12:54:50;;;;;;;62.17;45.15;;;;;;;;;;4991109;28;20802;-57
2022/04/02 12:57:16;;;;;;;55.30;40.75;;;;;;;;;;4988224;28;20257;-56
2022/04/02 12:59:51;;;;;;;59.95;43.90;;;;;;;;;;4988376;28;20202;-60
2022/04/02 13:02:22;;;;;;;57.67;43.35;;;;;;;;;;4990759;28;20173;-60
2022/04/02 13:04:53;;;;;;;56.65;42.67;;;;;;;;;;4989477;28;20221;-55
2022/04/02 13:07:21;;;;;;;55.63;42.83;;;;;;;;;;4986560;28;20177;-58
2022/04/02 13:09:48;;;;;;;63.92;50.47;;;;;;;;;;4991047;28;20272;-60
2022/04/02 13:12:19;;;;;;;62.50;46.80;;;;;;;;;;4994076;28;20444;-60
2022/04/02 13:14:49;;;;;;;64.00;46.53;;;;;;;;;;4990314;28;20183;-57
2022/04/02 13:17:16;;;;;;;70.68;48.70;;;;;;;;;;4990492;28;20670;-61
2022/04/02 13:22:41;;;;;;;67.15;45.45;;;;;;;;;;5010943;28;20597;-60
2022/04/02 13:25:12;;;;;;;67.32;42.60;;;;;;;;;;5000045;28;20190;-59
2022/04/02 13:27:38;;;;;;;68.30;46.00;;;;;;;;;;5008883;28;20204;-60
2022/04/02 13:30:13;;;;;;;71.07;45.93;;;;;;;;;;5010941;28;20217;-60
2022/04/02 13:33:04;;;;;;;65.90;41.30;;;;;;;;;;5010734;28;20925;-59
2022/04/02 13:35:30;;;;;;;73.68;46.70;;;;;;;;;;5010521;28;20193;-58
2022/04/02 13:37:56;;;;;;;76.30;51.67;;;;;;;;;;5009508;28;20185;-60
2022/04/02 13:40:25;;;;;;;70.68;49.20;;;;;;;;;;5015944;28;20479;-60
2022/04/02 13:42:51;;;;;;;69.80;47.10;;;;;;;;;;5010499;28;20228;-60
2022/04/02 13:45:17;;;;;;;41.20;36.53;;;;;;;;;;5010283;28;20190;-60
2022/04/02 13:47:48;;;;;;;39.15;35.28;;;;;;;;;;5009056;28;20221;-60
2022/04/02 13:50:16;;;;;;;43.20;39.47;;;;;;;;;;4999539;28;20202;-60
2022/04/02 13:52:49;;;;;;;31.73;29.23;;;;;;;;;;5007126;28;20548;-60
2022/04/02 13:55:16;;;;;;;31.88;29.50;;;;;;;;;;5010754;28;20201;-58
2022/04/02 13:57:44;;;;;;;32.13;29.65;;;;;;;;;;5009738;28;20185;-60
2022/04/02 14:00:11;;;;;;;31.05;28.83;;;;;;;;;;5010374;28;20205;-60
2022/04/02 14:02:38;;;;;;;25.50;23.80;;;;;;;;;;5011187;28;20669;-60
2022/04/02 14:05:13;;;;;;;29.67;27.70;;;;;;;;;;5010764;28;20196;-60
2022/04/02 14:07:51;;;;;;;24.88;23.33;;;;;;;;;;5009375;28;20225;-60
2022/04/02 14:10:19;;;;;;;29.35;27.38;;;;;;;;;;5010232;28;20205;-60
2022/04/02 14:12:45;;;;;;;24.23;22.75;;;;;;;;;;5011203;28;20239;-60
2022/04/02 14:15:12;;;;;;;22.15;20.85;;;;;;;;;;5024877;28;20193;-60
2022/04/02 14:17:42;;;;;;;21.58;20.42;;;;;;;;;;5010881;28;20228;-60
2022/04/02 14:20:10;;;;;;;13.05;12.48;;;;;;;;;;5013152;28;20212;-57
2022/04/02 14:22:54;;;;;;;22.20;21.00;;;;;;;;;;5013491;28;20301;-60
2022/04/02 14:25:32;;;;;;;24.55;23.02;;;;;;;;;;5014304;28;20580;-56
2022/04/02 14:28:21;;;;;;;27.10;25.27;;;;;;;;;;5014397;28;20224;-60
2022/04/02 14:31:05;;;;;;;25.83;24.13;;;;;;;;;;5014138;28;20173;-58
2022/04/02 14:33:50;;;;;;;23.30;21.83;;;;;;;;;;4994776;28;20264;-58
2022/04/02 14:36:30;;;;;;;29.40;27.15;;;;;;;;;;5012508;28;20186;-60
2022/04/02 14:39:27;;;;;;;26.20;24.30;;;;;;;;;;5012063;28;20276;-58